sensor_id;sensor_type;location;lat;lon;timestamp;pressure;altitude;pressure_sealevel;temperature;humidity
39083;BME280;24834;44.444;26.098;2023-02-21T00:00:24;100522.78;;;8.81;
39083;BME280;24834;44.444;26.098;2023-02-21T00:06:50;100512.81;;;8.78;
39083;BME280;24834;44.444;26.098;2023-02-21T00:13:11;100495.78;;;8.75;
39083;BME280;24834;44.444;26.098;2023-02-21T00:19:32;100498.38;;;8.65;
39083;BME280;24834;44.444;26.098;2023-02-21T00:25:55;100479.25;;;8.75;
39083;BME280;24834;44.444;26.098;2023-02-21T00:32:16;100487.91;;;8.75;
39083;BME280;24834;44.444;26.098;2023-02-21T00:38:37;100470.88;;;8.78;
39083;BME280;24834;44.444;26.098;2023-02-21T00:44:57;100467.72;;;8.96;
39083;BME280;24834;44.444;26.098;2023-02-21T00:51:18;100454.09;;;8.94;
39083;BME280;24834;44.444;26.098;2023-02-21T00:57:39;100436.81;;;8.88;
39083;BME280;24834;44.444;26.098;2023-02-21T01:04:00;100421.88;;;8.88;
39083;BME280;24834;44.444;26.098;2023-02-21T01:10:22;100417.09;;;9.11;
39083;BME280;24834;44.444;26.098;2023-02-21T01:16:43;100413.97;;;9.14;
39083;BME280;24834;44.444;26.098;2023-02-21T01:23:14;100398.75;;;9.01;
39083;BME280;24834;44.444;26.098;2023-02-21T01:29:35;100396.41;;;8.84;
39083;BME280;24834;44.444;26.098;2023-02-21T01:35:56;100383.34;;;8.79;
39083;BME280;24834;44.444;26.098;2023-02-21T01:42:17;100383.09;;;8.75;
39083;BME280;24834;44.444;26.098;2023-02-21T01:48:38;100392.50;;;8.71;
39083;BME280;24834;44.444;26.098;2023-02-21T01:54:59;100384.91;;;8.70;
39083;BME280;24834;44.444;26.098;2023-02-21T02:01:40;100379.13;;;8.78;
39083;BME280;24834;44.444;26.098;2023-02-21T02:08:04;100367.91;;;8.52;
39083;BME280;24834;44.444;26.098;2023-02-21T02:21:17;100349.81;;;8.35;
39083;BME280;24834;44.444;26.098;2023-02-21T02:40:50;100335.91;;;7.84;
39083;BME280;24834;44.444;26.098;2023-02-21T02:46:58;100339.06;;;7.91;
39083;BME280;24834;44.444;26.098;2023-02-21T02:53:04;100344.50;;;7.75;
39083;BME280;24834;44.444;26.098;2023-02-21T02:59:14;100313.88;;;7.80;
39083;BME280;24834;44.444;26.098;2023-02-21T03:11:31;100309.72;;;7.84;
39083;BME280;24834;44.444;26.098;2023-02-21T03:17:39;100312.34;;;7.79;
39083;BME280;24834;44.444;26.098;2023-02-21T03:23:44;100288.53;;;7.91;
39083;BME280;24834;44.444;26.098;2023-02-21T03:29:49;100299.53;;;8.08;
39083;BME280;24834;44.444;26.098;2023-02-21T03:35:54;100293.50;;;7.92;
39083;BME280;24834;44.444;26.098;2023-02-21T03:41:58;100292.47;;;8.04;
39083;BME280;24834;44.444;26.098;2023-02-21T03:48:02;100308.69;;;8.06;
39083;BME280;24834;44.444;26.098;2023-02-21T03:54:11;100292.97;;;8.11;
39083;BME280;24834;44.444;26.098;2023-02-21T04:00:18;100278.88;;;8.27;
39083;BME280;24834;44.444;26.098;2023-02-21T04:06:26;100278.81;;;8.42;
39083;BME280;24834;44.444;26.098;2023-02-21T04:12:31;100273.31;;;8.49;
39083;BME280;24834;44.444;26.098;2023-02-21T04:18:33;100293.22;;;8.55;
39083;BME280;24834;44.444;26.098;2023-02-21T04:24:41;100281.44;;;8.47;
39083;BME280;24834;44.444;26.098;2023-02-21T04:30:46;100273.03;;;8.55;
39083;BME280;24834;44.444;26.098;2023-02-21T04:36:49;100261.56;;;8.21;
39083;BME280;24834;44.444;26.098;2023-02-21T04:42:51;100274.41;;;8.27;
39083;BME280;24834;44.444;26.098;2023-02-21T04:48:54;100262.06;;;8.33;
39083;BME280;24834;44.444;26.098;2023-02-21T04:54:58;100254.75;;;8.25;
39083;BME280;24834;44.444;26.098;2023-02-21T05:07:45;100250.25;;;8.51;
39083;BME280;24834;44.444;26.098;2023-02-21T05:13:53;100262.09;;;8.28;
39083;BME280;24834;44.444;26.098;2023-02-21T05:19:58;100262.09;;;8.38;
39083;BME280;24834;44.444;26.098;2023-02-21T05:26:12;100251.75;;;8.72;
39083;BME280;24834;44.444;26.098;2023-02-21T05:32:21;100248.38;;;8.66;
39083;BME280;24834;44.444;26.098;2023-02-21T05:38:24;100241.56;;;8.65;
39083;BME280;24834;44.444;26.098;2023-02-21T05:44:29;100250.97;;;8.71;
39083;BME280;24834;44.444;26.098;2023-02-21T05:50:37;100249.44;;;8.65;
39083;BME280;24834;44.444;26.098;2023-02-21T05:56:45;100262.47;;;8.85;
39083;BME280;24834;44.444;26.098;2023-02-21T06:02:50;100267.72;;;8.80;
39083;BME280;24834;44.444;26.098;2023-02-21T06:08:53;100256.50;;;8.70;
39083;BME280;24834;44.444;26.098;2023-02-21T06:14:56;100269.31;;;8.81;
39083;BME280;24834;44.444;26.098;2023-02-21T06:20:59;100272.41;;;8.94;
39083;BME280;24834;44.444;26.098;2023-02-21T06:27:01;100266.50;;;9.22;
39083;BME280;24834;44.444;26.098;2023-02-21T06:33:04;100269.31;;;9.40;
39083;BME280;24834;44.444;26.098;2023-02-21T06:39:06;100263.53;;;9.44;
39083;BME280;24834;44.444;26.098;2023-02-21T06:45:09;100259.41;;;9.71;
39083;BME280;24834;44.444;26.098;2023-02-21T06:51:12;100269.72;;;9.92;
39083;BME280;24834;44.444;26.098;2023-02-21T06:57:18;100255.19;;;9.99;
39083;BME280;24834;44.444;26.098;2023-02-21T07:03:21;100268.75;;;10.11;
39083;BME280;24834;44.444;26.098;2023-02-21T07:09:23;100256.63;;;10.20;
39083;BME280;24834;44.444;26.098;2023-02-21T07:15:29;100247.09;;;10.53;
39083;BME280;24834;44.444;26.098;2023-02-21T07:21:34;100236.03;;;10.75;
39083;BME280;24834;44.444;26.098;2023-02-21T07:27:37;100222.63;;;11.14;
39083;BME280;24834;44.444;26.098;2023-02-21T07:33:39;100204.56;;;11.58;
39083;BME280;24834;44.444;26.098;2023-02-21T07:39:41;100194.59;;;12.01;
39083;BME280;24834;44.444;26.098;2023-02-21T07:45:44;100204.56;;;12.31;
39083;BME280;24834;44.444;26.098;2023-02-21T07:51:49;100203.09;;;12.39;
39083;BME280;24834;44.444;26.098;2023-02-21T07:57:56;100199.66;;;12.66;
39083;BME280;24834;44.444;26.098;2023-02-21T08:04:01;100188.78;;;13.25;
39083;BME280;24834;44.444;26.098;2023-02-21T08:10:05;100176.78;;;13.41;
39083;BME280;24834;44.444;26.098;2023-02-21T08:16:07;100171.38;;;13.94;
39083;BME280;24834;44.444;26.098;2023-02-21T08:22:10;100160.94;;;14.46;
39083;BME280;24834;44.444;26.098;2023-02-21T08:28:13;100156.72;;;14.45;
39083;BME280;24834;44.444;26.098;2023-02-21T08:34:16;100146.00;;;14.67;
39083;BME280;24834;44.444;26.098;2023-02-21T08:40:20;100143.81;;;15.33;
39083;BME280;24834;44.444;26.098;2023-02-21T08:46:23;100146.63;;;15.74;
39083;BME280;24834;44.444;26.098;2023-02-21T08:52:27;100138.50;;;16.20;
39083;BME280;24834;44.444;26.098;2023-02-21T08:58:29;100137.16;;;16.56;
39083;BME280;24834;44.444;26.098;2023-02-21T09:04:34;100128.91;;;16.69;
39083;BME280;24834;44.444;26.098;2023-02-21T09:10:39;100136.81;;;16.57;
39083;BME280;24834;44.444;26.098;2023-02-21T09:16:49;100121.84;;;16.73;
39083;BME280;24834;44.444;26.098;2023-02-21T09:22:55;100121.44;;;16.95;
39083;BME280;24834;44.444;26.098;2023-02-21T09:29:02;100122.09;;;17.05;
39083;BME280;24834;44.444;26.098;2023-02-21T09:35:11;100126.56;;;17.37;
39083;BME280;24834;44.444;26.098;2023-02-21T09:41:18;100108.28;;;17.11;
39083;BME280;24834;44.444;26.098;2023-02-21T09:47:27;100105.41;;;17.65;
39083;BME280;24834;44.444;26.098;2023-02-21T09:53:38;100091.38;;;17.40;
39083;BME280;24834;44.444;26.098;2023-02-21T09:59:48;100089.97;;;17.82;
39083;BME280;24834;44.444;26.098;2023-02-21T10:05:57;100084.72;;;17.86;
39083;BME280;24834;44.444;26.098;2023-02-21T10:12:19;100070.56;;;17.94;
39083;BME280;24834;44.444;26.098;2023-02-21T10:24:49;100030.66;;;18.68;
39083;BME280;24834;44.444;26.098;2023-02-21T10:30:57;100023.59;;;18.76;
39083;BME280;24834;44.444;26.098;2023-02-21T10:37:09;100008.22;;;19.01;
39083;BME280;24834;44.444;26.098;2023-02-21T10:43:40;100028.94;;;18.60;
39083;BME280;24834;44.444;26.098;2023-02-21T10:49:58;100004.75;;;19.00;
39083;BME280;24834;44.444;26.098;2023-02-21T10:56:07;100007.03;;;18.83;
39083;BME280;24834;44.444;26.098;2023-02-21T11:02:32;99984.03;;;19.28;
39083;BME280;24834;44.444;26.098;2023-02-21T11:08:41;99969.81;;;19.40;
39083;BME280;24834;44.444;26.098;2023-02-21T11:20:54;99961.59;;;19.29;
39083;BME280;24834;44.444;26.098;2023-02-21T11:26:59;99950.88;;;19.45;
39083;BME280;24834;44.444;26.098;2023-02-21T11:33:08;99943.09;;;20.24;
39083;BME280;24834;44.444;26.098;2023-02-21T11:39:23;99934.16;;;20.65;
39083;BME280;24834;44.444;26.098;2023-02-21T11:45:32;99923.09;;;20.37;
39083;BME280;24834;44.444;26.098;2023-02-21T11:51:42;99928.16;;;20.45;
39083;BME280;24834;44.444;26.098;2023-02-21T11:58:05;99927.16;;;20.83;
39083;BME280;24834;44.444;26.098;2023-02-21T12:04:44;99907.59;;;21.05;
39083;BME280;24834;44.444;26.098;2023-02-21T12:31:15;99880.38;;;20.96;
39083;BME280;24834;44.444;26.098;2023-02-21T12:44:14;99866.59;;;20.64;
39083;BME280;24834;44.444;26.098;2023-02-21T12:50:25;99853.75;;;20.44;
39083;BME280;24834;44.444;26.098;2023-02-21T13:02:49;99855.81;;;20.54;
39083;BME280;24834;44.444;26.098;2023-02-21T13:33:53;99830.28;;;19.78;
39083;BME280;24834;44.444;26.098;2023-02-21T13:54:02;99840.28;;;19.39;
39083;BME280;24834;44.444;26.098;2023-02-21T14:11:51;99841.63;;;19.29;
39083;BME280;24834;44.444;26.098;2023-02-21T14:17:58;99830.47;;;19.43;
39083;BME280;24834;44.444;26.098;2023-02-21T14:24:23;99829.56;;;19.35;
39083;BME280;24834;44.444;26.098;2023-02-21T14:30:35;99823.72;;;19.49;
39083;BME280;24834;44.444;26.098;2023-02-21T14:36:40;99831.38;;;19.54;
39083;BME280;24834;44.444;26.098;2023-02-21T14:49:36;99836.22;;;19.45;
39083;BME280;24834;44.444;26.098;2023-02-21T15:02:33;99840.03;;;19.06;
39083;BME280;24834;44.444;26.098;2023-02-21T15:08:43;99844.69;;;19.09;
39083;BME280;24834;44.444;26.098;2023-02-21T15:14:49;99844.97;;;19.04;
39083;BME280;24834;44.444;26.098;2023-02-21T15:21:03;99851.56;;;18.91;
39083;BME280;24834;44.444;26.098;2023-02-21T15:27:13;99840.75;;;18.84;
39083;BME280;24834;44.444;26.098;2023-02-21T15:33:20;99857.47;;;18.65;
39083;BME280;24834;44.444;26.098;2023-02-21T15:39:38;99875.53;;;18.56;
39083;BME280;24834;44.444;26.098;2023-02-21T15:46:04;99883.09;;;18.38;
39083;BME280;24834;44.444;26.098;2023-02-21T15:52:30;99891.81;;;18.35;
39083;BME280;24834;44.444;26.098;2023-02-21T15:58:36;99889.69;;;18.25;
39083;BME280;24834;44.444;26.098;2023-02-21T16:04:45;99911.47;;;18.15;
39083;BME280;24834;44.444;26.098;2023-02-21T16:11:03;99922.34;;;18.10;
39083;BME280;24834;44.444;26.098;2023-02-21T16:17:16;99930.28;;;18.06;
39083;BME280;24834;44.444;26.098;2023-02-21T16:23:38;99946.63;;;17.93;
39083;BME280;24834;44.444;26.098;2023-02-21T16:29:46;99957.84;;;17.86;
39083;BME280;24834;44.444;26.098;2023-02-21T16:35:51;99969.53;;;17.82;
39083;BME280;24834;44.444;26.098;2023-02-21T16:42:04;99969.75;;;17.77;
39083;BME280;24834;44.444;26.098;2023-02-21T16:48:15;99996.94;;;17.70;
39083;BME280;24834;44.444;26.098;2023-02-21T16:54:20;99997.06;;;17.62;
39083;BME280;24834;44.444;26.098;2023-02-21T17:00:23;100017.13;;;17.47;
39083;BME280;24834;44.444;26.098;2023-02-21T17:06:33;100010.72;;;17.48;
39083;BME280;24834;44.444;26.098;2023-02-21T17:12:38;100021.03;;;17.37;
39083;BME280;24834;44.444;26.098;2023-02-21T17:18:44;100028.38;;;17.28;
39083;BME280;24834;44.444;26.098;2023-02-21T17:24:48;100032.00;;;17.24;
39083;BME280;24834;44.444;26.098;2023-02-21T17:30:51;100045.66;;;17.22;
39083;BME280;24834;44.444;26.098;2023-02-21T17:36:54;100041.88;;;17.11;
39083;BME280;24834;44.444;26.098;2023-02-21T17:43:06;100043.19;;;16.93;
39083;BME280;24834;44.444;26.098;2023-02-21T17:49:11;100041.84;;;16.87;
39083;BME280;24834;44.444;26.098;2023-02-21T17:55:22;100052.13;;;16.76;
39083;BME280;24834;44.444;26.098;2023-02-21T18:01:26;100053.25;;;16.75;
39083;BME280;24834;44.444;26.098;2023-02-21T18:07:32;100065.97;;;16.70;
39083;BME280;24834;44.444;26.098;2023-02-21T18:13:37;100071.72;;;16.72;
39083;BME280;24834;44.444;26.098;2023-02-21T18:19:42;100077.28;;;16.46;
39083;BME280;24834;44.444;26.098;2023-02-21T18:25:44;100077.69;;;16.36;
39083;BME280;24834;44.444;26.098;2023-02-21T18:31:51;100089.38;;;16.23;
39083;BME280;24834;44.444;26.098;2023-02-21T18:38:00;100098.47;;;16.13;
